createdAt,value
2022-10-09T00:00:47.106Z,98640.16
2022-10-09T00:03:14.608Z,98676.25
2022-10-09T00:05:41.669Z,98623.47
2022-10-09T00:08:08.682Z,98620.34
2022-10-09T00:10:35.444Z,98645.59
2022-10-09T00:13:02.332Z,98647.19
2022-10-09T00:15:30.249Z,98611.38
2022-10-09T00:17:57.024Z,98636.16
2022-10-09T00:20:23.639Z,98620.63
2022-10-09T00:22:50.542Z,98643.75
2022-10-09T00:25:17.355Z,98637.06
2022-10-09T00:27:44.269Z,98634.59
2022-10-09T00:30:11.462Z,98626.66
2022-10-09T00:32:38.219Z,98621.19
2022-10-09T00:35:05.178Z,98613.75
2022-10-09T00:37:31.850Z,98612.50
2022-10-09T00:39:58.740Z,98623.41
2022-10-09T00:42:26.453Z,98616.50
2022-10-09T00:45:00.325Z,98638.13
2022-10-09T00:47:38.609Z,98621.97
2022-10-09T00:50:14.232Z,98625.63
2022-10-09T00:52:41.525Z,98615.16
2022-10-09T00:55:09.259Z,98622.25
2022-10-09T00:57:38.815Z,98623.94
2022-10-09T01:00:10.714Z,98637.69
2022-10-09T01:02:38.064Z,98629.47
2022-10-09T01:05:06.431Z,98636.72
2022-10-09T01:07:47.948Z,98646.16
2022-10-09T01:10:55.526Z,98622.47
2022-10-09T01:14:09.653Z,98634.38
2022-10-09T01:16:45.080Z,98623.25
2022-10-09T01:19:23.862Z,98630.88
2022-10-09T01:22:12.484Z,98639.66
2022-10-09T01:24:51.159Z,98623.16
2022-10-09T01:27:22.486Z,98625.38
2022-10-09T01:29:54.401Z,98607.81
2022-10-09T01:32:26.369Z,98622.78
2022-10-09T01:34:53.838Z,98632.75
2022-10-09T01:37:21.896Z,98638.31
2022-10-09T01:39:49.632Z,98643.31
2022-10-09T01:42:20.365Z,98608.22
2022-10-09T01:44:47.106Z,98621.84
2022-10-09T01:47:17.018Z,98632.09
2022-10-09T01:49:55.747Z,98636.34
2022-10-09T01:52:41.148Z,98630.78
2022-10-09T01:55:17.353Z,98628.88
2022-10-09T01:58:09.374Z,98617.88
2022-10-09T02:01:15.726Z,98626.84
2022-10-09T02:03:46.925Z,98614.31
2022-10-09T02:06:16.796Z,98616.72
2022-10-09T02:08:47.016Z,98628.16
2022-10-09T02:11:17.317Z,98612.56
2022-10-09T02:13:46.590Z,98609.03
2022-10-09T02:16:37.730Z,98626.44
2022-10-09T02:19:25.431Z,98630.84
2022-10-09T02:21:56.845Z,98620.38
2022-10-09T02:24:24.607Z,98584.16
2022-10-09T02:26:54.293Z,98585.44
2022-10-09T02:29:21.991Z,98628.97
2022-10-09T02:31:48.626Z,98617.03
2022-10-09T02:34:19.660Z,98605.56
2022-10-09T02:36:47.486Z,98624.16
2022-10-09T02:39:14.214Z,98613.69
2022-10-09T02:41:40.925Z,98625.66
2022-10-09T02:44:08.035Z,98643.22
2022-10-09T02:46:35.330Z,98638.47
2022-10-09T02:49:02.081Z,98623.88
2022-10-09T02:51:28.676Z,98622.88
2022-10-09T02:53:55.912Z,98640.06
2022-10-09T02:56:23.815Z,98649.25
2022-10-09T02:58:50.691Z,98620.31
2022-10-09T03:01:17.866Z,98639.56
2022-10-09T03:03:45.263Z,98634.72
2022-10-09T03:06:17.902Z,98635.66
2022-10-09T03:08:47.683Z,98616.53
2022-10-09T03:11:16.025Z,98640.66
2022-10-09T03:13:42.713Z,98643.41
2022-10-09T03:16:20.827Z,98638.38
2022-10-09T03:18:48.771Z,98631.06
2022-10-09T03:21:23.878Z,98645.75
2022-10-09T03:23:52.094Z,98652.44
2022-10-09T03:26:21.497Z,98625.03
2022-10-09T03:28:50.692Z,98649.53
2022-10-09T03:31:46.475Z,98652.44
2022-10-09T03:34:05.415Z,98642.63
2022-10-09T03:36:31.999Z,98644.09
2022-10-09T03:38:58.731Z,98630.88
2022-10-09T03:41:25.563Z,98641.78
2022-10-09T03:43:52.252Z,98651.22
2022-10-09T03:46:18.891Z,98618.13
2022-10-09T03:48:45.795Z,98634.88
2022-10-09T03:51:12.500Z,98640.09
2022-10-09T03:53:39.352Z,98643.00
2022-10-09T03:56:06.234Z,98656.78
2022-10-09T03:58:32.926Z,98659.47
2022-10-09T04:00:59.619Z,98659.69
2022-10-09T04:03:27.620Z,98650.19
2022-10-09T04:05:54.337Z,98665.03
2022-10-09T04:08:21.040Z,98626.69
2022-10-09T04:10:47.841Z,98667.50
2022-10-09T04:13:14.451Z,98641.69
2022-10-09T04:15:49.402Z,98653.22
2022-10-09T04:18:16.017Z,98643.06
2022-10-09T04:20:54.086Z,98614.59
2022-10-09T04:23:22.785Z,98624.84
2022-10-09T04:25:53.265Z,98675.47
2022-10-09T04:28:19.924Z,98653.28
2022-10-09T04:30:46.544Z,98652.66
2022-10-09T04:33:13.310Z,98667.94
2022-10-09T04:35:44.416Z,98642.19
2022-10-09T04:38:11.453Z,98646.84
2022-10-09T04:40:38.126Z,98663.34
2022-10-09T04:43:04.892Z,98667.13
2022-10-09T04:45:31.848Z,98641.72
2022-10-09T04:47:58.653Z,98681.06
2022-10-09T04:50:25.614Z,98669.06
2022-10-09T04:52:52.289Z,98657.88
2022-10-09T04:55:18.991Z,98680.88
2022-10-09T04:57:45.629Z,98683.78
2022-10-09T05:00:13.229Z,98667.19
2022-10-09T05:02:39.800Z,98689.63
2022-10-09T05:05:06.718Z,98671.81
2022-10-09T05:07:33.468Z,98668.47
2022-10-09T05:10:00.252Z,98663.69
2022-10-09T05:12:27.265Z,98683.81
2022-10-09T05:14:53.936Z,98681.53
2022-10-09T05:17:23.152Z,98687.19
2022-10-09T05:19:50.180Z,98666.09
2022-10-09T05:22:16.892Z,98670.31
2022-10-09T05:24:43.501Z,98701.72
2022-10-09T05:27:10.191Z,98661.31
2022-10-09T05:29:36.823Z,98683.16
2022-10-09T05:32:03.545Z,98682.00
2022-10-09T05:34:30.341Z,98695.16
2022-10-09T05:36:57.060Z,98682.41
2022-10-09T05:39:23.721Z,98713.00
2022-10-09T05:41:50.371Z,98701.78
2022-10-09T05:44:16.995Z,98691.53
2022-10-09T05:46:43.721Z,98691.66
2022-10-09T05:49:12.215Z,98731.50
2022-10-09T05:51:40.234Z,98722.09
2022-10-09T05:54:07.100Z,98729.69
2022-10-09T05:56:38.883Z,98726.50
2022-10-09T05:59:08.258Z,98729.94
2022-10-09T06:01:37.636Z,98721.13
2022-10-09T06:04:05.836Z,98705.19
2022-10-09T06:06:35.932Z,98737.94
2022-10-09T06:09:05.085Z,98695.59
2022-10-09T06:11:34.576Z,98749.66
2022-10-09T06:14:03.415Z,98751.41
2022-10-09T06:16:33.674Z,98755.56
2022-10-09T06:19:01.235Z,98748.69
2022-10-09T06:21:28.719Z,98758.53
2022-10-09T06:23:59.569Z,98772.88
2022-10-09T06:26:29.369Z,98765.59
2022-10-09T06:28:56.866Z,98770.44
2022-10-09T06:31:28.791Z,98777.13
2022-10-09T06:33:56.171Z,98766.63
2022-10-09T06:36:25.578Z,98775.63
2022-10-09T06:38:54.268Z,98790.66
2022-10-09T06:41:25.822Z,98790.16
2022-10-09T06:43:55.015Z,98792.75
2022-10-09T06:46:24.212Z,98778.41
2022-10-09T06:48:51.020Z,98770.19
2022-10-09T06:51:20.269Z,98795.75
2022-10-09T06:53:50.384Z,98801.84
2022-10-09T06:56:18.103Z,98795.56
2022-10-09T06:58:45.604Z,98795.75
2022-10-09T07:01:15.816Z,98803.06
2022-10-09T07:03:44.533Z,98792.44
2022-10-09T07:06:23.119Z,98810.06
2022-10-09T07:08:52.771Z,98815.63
2022-10-09T07:11:46.737Z,98811.75
2022-10-09T07:14:14.301Z,98780.38
2022-10-09T07:16:43.806Z,98799.00
2022-10-09T07:19:11.785Z,98817.94
2022-10-09T07:21:41.897Z,98822.38
2022-10-09T07:24:08.706Z,98814.91
2022-10-09T07:26:39.181Z,98824.16
2022-10-09T07:29:07.437Z,98822.16
2022-10-09T07:31:34.163Z,98774.66
2022-10-09T07:34:00.885Z,98796.31
2022-10-09T07:36:27.686Z,98802.63
2022-10-09T07:38:56.739Z,98816.66
2022-10-09T07:41:25.899Z,98824.69
2022-10-09T07:43:52.936Z,98821.56
2022-10-09T07:46:21.548Z,98808.72
2022-10-09T07:48:48.486Z,98803.03
2022-10-09T07:51:23.752Z,98797.91
2022-10-09T07:53:51.373Z,98823.34
2022-10-09T07:56:29.208Z,98786.44
2022-10-09T07:59:01.762Z,98781.47
2022-10-09T08:01:29.741Z,98816.94
2022-10-09T08:03:57.377Z,98814.78
2022-10-09T08:06:24.382Z,98821.88
2022-10-09T08:08:55.944Z,98802.50
2022-10-09T08:11:24.594Z,98814.63
2022-10-09T08:13:52.600Z,98801.25
2022-10-09T08:16:21.250Z,98797.06
2022-10-09T08:18:48.042Z,98809.63
2022-10-09T08:21:18.446Z,98810.53
2022-10-09T08:23:45.688Z,98805.63
2022-10-09T08:26:17.954Z,98818.03
2022-10-09T08:28:45.237Z,98819.25
2022-10-09T08:31:14.392Z,98803.94
2022-10-09T08:33:41.421Z,98811.97
2022-10-09T08:36:10.421Z,98806.66
2022-10-09T08:38:47.250Z,98811.34
2022-10-09T08:41:21.327Z,98817.19
2022-10-09T08:43:54.383Z,98813.53
2022-10-09T08:46:30.704Z,98778.34
2022-10-09T08:49:00.136Z,98792.41
2022-10-09T08:51:31.415Z,98815.41
2022-10-09T08:54:25.164Z,98782.84
2022-10-09T08:56:53.736Z,98804.75
2022-10-09T08:59:20.478Z,98799.81
2022-10-09T09:02:07.371Z,98810.75
2022-10-09T09:04:45.070Z,98810.75
2022-10-09T09:07:31.861Z,98811.50
2022-10-09T09:10:18.785Z,98802.25
2022-10-09T09:13:08.285Z,98817.13
2022-10-09T09:15:53.193Z,98807.41
2022-10-09T09:18:43.102Z,98811.78
2022-10-09T09:21:37.584Z,98803.34
2022-10-09T09:24:16.309Z,98783.41
2022-10-09T09:26:45.583Z,98790.25
2022-10-09T09:29:15.931Z,98788.56
2022-10-09T09:31:43.681Z,98784.56
2022-10-09T09:34:10.262Z,98800.00
2022-10-09T09:36:50.174Z,98794.44
2022-10-09T09:42:09.874Z,98808.53
2022-10-09T09:44:40.412Z,98807.25
2022-10-09T09:47:15.490Z,98782.56
2022-10-09T09:49:54.843Z,98792.16
2022-10-09T09:52:22.021Z,98799.50
2022-10-09T09:54:49.454Z,98772.25
2022-10-09T09:57:29.459Z,98792.50
2022-10-09T10:00:17.726Z,98791.59
2022-10-09T10:02:44.704Z,98793.78
2022-10-09T10:05:35.820Z,98798.44
2022-10-09T10:08:23.452Z,98794.75
2022-10-09T10:10:52.750Z,98776.91
2022-10-09T10:13:38.304Z,98799.34
2022-10-09T10:16:07.651Z,98788.22
2022-10-09T10:18:42.971Z,98792.78
2022-10-09T10:21:18.983Z,98739.34
2022-10-09T10:24:03.581Z,98780.63
2022-10-09T10:26:35.352Z,98748.66
2022-10-09T10:29:09.341Z,98767.59
2022-10-09T10:31:59.700Z,98773.97
2022-10-09T10:34:29.733Z,98730.03
2022-10-09T10:37:15.821Z,98773.94
2022-10-09T10:39:59.368Z,98748.44
2022-10-09T10:42:45.257Z,98768.72
2022-10-09T10:45:17.109Z,98763.75
2022-10-09T10:47:50.269Z,98730.78
2022-10-09T10:50:19.521Z,98739.38
2022-10-09T10:53:01.940Z,98743.78
2022-10-09T10:55:43.736Z,98754.06
2022-10-09T10:58:38.231Z,98744.88
2022-10-09T11:01:10.897Z,98729.91
2022-10-09T11:03:56.769Z,98752.13
2022-10-09T11:06:30.157Z,98741.88
2022-10-09T11:09:11.827Z,98733.84
2022-10-09T11:12:01.293Z,98729.41
2022-10-09T11:15:17.119Z,98733.47
2022-10-09T11:18:14.635Z,98732.78
2022-10-09T11:21:06.245Z,98724.16
2022-10-09T11:23:41.621Z,98720.31
2022-10-09T11:26:33.884Z,98730.34
2022-10-09T11:29:18.534Z,98732.25
2022-10-09T11:31:48.697Z,98738.47
2022-10-09T11:34:22.449Z,98728.41
2022-10-09T11:36:49.248Z,98736.06
2022-10-09T11:39:20.410Z,98726.66
2022-10-09T11:41:49.059Z,98744.91
2022-10-09T11:44:18.600Z,98746.41
2022-10-09T11:46:50.111Z,98736.75
2022-10-09T11:49:23.628Z,98749.66
2022-10-09T11:51:50.459Z,98760.84
2022-10-09T11:54:20.619Z,98756.47
2022-10-09T11:56:59.183Z,98755.44
2022-10-09T11:59:31.755Z,98742.06
2022-10-09T12:02:01.509Z,98760.19
2022-10-09T12:04:50.129Z,98749.09
2022-10-09T12:07:27.253Z,98744.16
2022-10-09T12:10:00.506Z,98732.72
2022-10-09T12:12:27.835Z,98739.25
2022-10-09T12:14:55.233Z,98734.59
2022-10-09T12:17:21.758Z,98736.28
2022-10-09T12:19:58.582Z,98736.72
2022-10-09T12:22:52.441Z,98721.13
2022-10-09T12:25:32.612Z,98744.56
2022-10-09T12:28:00.843Z,98735.03
2022-10-09T12:30:45.053Z,98737.88
2022-10-09T12:33:49.571Z,98738.56
2022-10-09T12:36:27.670Z,98741.03
2022-10-09T12:38:54.464Z,98727.53
2022-10-09T12:41:31.467Z,98728.63
2022-10-09T12:43:59.202Z,98715.19
2022-10-09T12:46:29.499Z,98708.28
2022-10-09T12:48:57.918Z,98696.97
2022-10-09T12:51:26.874Z,98717.72
2022-10-09T12:53:54.596Z,98705.72
2022-10-09T12:56:30.417Z,98714.84
2022-10-09T12:58:58.697Z,98702.84
2022-10-09T13:01:25.797Z,98701.69
2022-10-09T13:04:04.365Z,98707.06
2022-10-09T13:06:38.425Z,98686.56
2022-10-09T13:09:08.700Z,98690.16
2022-10-09T13:11:43.469Z,98682.59
2022-10-09T13:14:47.348Z,98683.78
2022-10-09T13:17:25.186Z,98677.16
2022-10-09T13:19:54.100Z,98689.22
2022-10-09T13:22:26.597Z,98685.94
2022-10-09T13:24:55.435Z,98682.66
2022-10-09T13:27:27.142Z,98678.75
2022-10-09T13:29:54.316Z,98679.00
2022-10-09T13:32:21.071Z,98681.69
2022-10-09T13:34:47.847Z,98679.97
2022-10-09T13:37:17.399Z,98671.06
2022-10-09T13:39:44.089Z,98677.06
2022-10-09T13:42:15.311Z,98655.34
2022-10-09T13:44:42.404Z,98685.50
2022-10-09T13:47:09.214Z,98674.91
2022-10-09T13:49:35.917Z,98673.75
2022-10-09T13:52:02.649Z,98666.81
2022-10-09T13:54:29.261Z,98651.25
2022-10-09T13:56:56.024Z,98678.66
2022-10-09T13:59:24.526Z,98666.25
2022-10-09T14:01:51.734Z,98670.38
2022-10-09T14:04:19.080Z,98665.63
2022-10-09T14:06:45.718Z,98676.38
2022-10-09T14:09:12.379Z,98654.38
2022-10-09T14:11:39.268Z,98636.41
2022-10-09T14:14:06.151Z,98647.47
2022-10-09T14:16:32.934Z,98673.69
2022-10-09T14:19:02.360Z,98665.03
2022-10-09T14:21:30.151Z,98673.31
2022-10-09T14:23:59.974Z,98674.88
2022-10-09T14:26:27.936Z,98650.66
2022-10-09T14:28:55.348Z,98682.66
2022-10-09T14:31:22.037Z,98664.88
2022-10-09T14:33:49.481Z,98684.41
2022-10-09T14:36:19.167Z,98674.53
2022-10-09T14:38:46.859Z,98680.31
2022-10-09T14:41:14.185Z,98674.78
2022-10-09T14:43:40.883Z,98653.31
2022-10-09T14:46:15.636Z,98664.06
2022-10-09T14:48:43.378Z,98675.31
2022-10-09T14:51:13.241Z,98684.66
2022-10-09T14:53:39.899Z,98673.44
2022-10-09T14:56:10.413Z,98695.53
2022-10-09T14:58:37.543Z,98669.88
2022-10-09T15:01:04.579Z,98702.88
2022-10-09T15:03:32.054Z,98693.31
2022-10-09T15:06:00.570Z,98705.72
2022-10-09T15:08:30.235Z,98701.06
2022-10-09T15:10:57.033Z,98701.81
2022-10-09T15:13:23.656Z,98689.22
2022-10-09T15:15:50.474Z,98710.22
2022-10-09T15:18:17.697Z,98720.06
2022-10-09T15:20:45.579Z,98723.38
2022-10-09T15:23:12.765Z,98709.00
2022-10-09T15:25:39.591Z,98691.50
2022-10-09T15:28:06.875Z,98689.38
2022-10-09T15:30:33.529Z,98698.63
2022-10-09T15:33:03.465Z,98716.84
2022-10-09T15:35:32.135Z,98723.72
2022-10-09T15:37:58.906Z,98741.91
2022-10-09T15:40:25.590Z,98710.31
2022-10-09T15:42:52.408Z,98711.53
2022-10-09T15:45:19.933Z,98740.25
2022-10-09T15:47:51.263Z,98746.13
2022-10-09T15:50:18.471Z,98769.53
2022-10-09T15:52:45.098Z,98760.34
2022-10-09T15:55:11.769Z,98751.47
2022-10-09T15:57:38.481Z,98744.88
2022-10-09T16:00:05.956Z,98779.47
2022-10-09T16:02:32.669Z,98760.34
2022-10-09T16:04:59.349Z,98764.88
2022-10-09T16:07:26.108Z,98796.72
2022-10-09T16:09:53.111Z,98788.06
2022-10-09T16:12:19.836Z,98776.84
2022-10-09T16:14:46.400Z,98757.56
2022-10-09T16:17:13.066Z,98784.16
2022-10-09T16:19:39.810Z,98782.41
2022-10-09T16:22:06.642Z,98768.38
2022-10-09T16:24:33.413Z,98797.56
2022-10-09T16:27:00.037Z,98793.59
2022-10-09T16:29:26.777Z,98791.72
2022-10-09T16:31:56.777Z,98794.19
2022-10-09T16:34:23.713Z,98820.34
2022-10-09T16:36:50.383Z,98825.59
2022-10-09T16:39:17.518Z,98824.75
2022-10-09T16:41:44.205Z,98777.22
2022-10-09T16:44:17.005Z,98803.69
2022-10-09T16:46:43.827Z,98831.69
2022-10-09T16:49:20.055Z,98816.97
2022-10-09T16:51:49.969Z,98847.56
2022-10-09T16:54:16.565Z,98829.69
2022-10-09T16:56:43.244Z,98821.06
2022-10-09T16:59:13.092Z,98832.41
2022-10-09T17:01:45.115Z,98853.38
2022-10-09T17:04:13.110Z,98854.88
2022-10-09T17:06:41.663Z,98860.78
2022-10-09T17:09:13.696Z,98837.78
2022-10-09T17:11:41.138Z,98826.91
2022-10-09T17:14:07.802Z,98825.84
2022-10-09T17:16:37.594Z,98856.84
2022-10-09T17:19:04.835Z,98857.31
2022-10-09T17:21:34.595Z,98862.19
2022-10-09T17:24:04.240Z,98834.78
2022-10-09T17:26:31.121Z,98865.59
2022-10-09T17:28:59.307Z,98874.47
2022-10-09T17:31:27.152Z,98858.16
2022-10-09T17:33:57.134Z,98861.94
2022-10-09T17:36:26.379Z,98872.00
2022-10-09T17:38:53.610Z,98829.75
2022-10-09T17:41:23.678Z,98863.66
2022-10-09T17:43:54.838Z,98864.31
2022-10-09T17:46:22.365Z,98844.84
2022-10-09T17:48:56.686Z,98849.50
2022-10-09T17:51:32.136Z,98840.72
2022-10-09T17:54:01.434Z,98888.06
2022-10-09T17:56:30.292Z,98895.44
2022-10-09T17:58:59.672Z,98852.06
2022-10-09T18:01:27.153Z,98894.41
2022-10-09T18:03:54.075Z,98900.09
2022-10-09T18:06:23.914Z,98881.88
2022-10-09T18:08:55.570Z,98897.38
2022-10-09T18:11:24.315Z,98872.03
2022-10-09T18:13:51.178Z,98865.75
2022-10-09T18:16:22.662Z,98898.44
2022-10-09T18:18:49.599Z,98872.69
2022-10-09T18:21:17.520Z,98884.00
2022-10-09T18:23:46.442Z,98895.13
2022-10-09T18:26:17.050Z,98909.19
2022-10-09T18:28:47.441Z,98882.34
2022-10-09T18:31:18.502Z,98903.09
2022-10-09T18:33:45.466Z,98874.97
2022-10-09T18:36:19.719Z,98908.31
2022-10-09T18:38:51.517Z,98915.91
2022-10-09T18:41:19.621Z,98873.53
2022-10-09T18:43:47.015Z,98925.97
2022-10-09T18:46:16.718Z,98882.53
2022-10-09T18:48:44.550Z,98936.47
2022-10-09T18:51:15.735Z,98923.88
2022-10-09T18:53:45.564Z,98938.75
2022-10-09T18:56:12.941Z,98893.25
2022-10-09T18:58:42.040Z,98931.41
2022-10-09T19:01:08.978Z,98946.53
2022-10-09T19:03:36.755Z,98941.72
2022-10-09T19:06:04.774Z,98960.34
2022-10-09T19:08:31.901Z,98953.25
2022-10-09T19:10:58.530Z,98917.56
2022-10-09T19:13:25.355Z,98953.47
2022-10-09T19:16:00.990Z,98951.97
2022-10-09T19:18:27.748Z,98958.28
2022-10-09T19:20:54.958Z,98964.38
2022-10-09T19:23:21.836Z,98931.41
2022-10-09T19:25:50.606Z,98974.22
2022-10-09T19:28:17.722Z,98949.22
2022-10-09T19:30:45.827Z,98981.78
2022-10-09T19:33:12.765Z,98957.84
2022-10-09T19:35:50.842Z,98975.47
2022-10-09T19:38:17.706Z,98949.06
2022-10-09T19:40:45.732Z,98962.06
2022-10-09T19:43:13.866Z,98965.00
2022-10-09T19:45:40.803Z,98969.59
2022-10-09T19:48:07.930Z,98953.66
2022-10-09T19:50:35.444Z,98973.38
2022-10-09T19:53:04.242Z,98978.41
2022-10-09T19:55:33.496Z,98980.53
2022-10-09T19:58:00.484Z,98962.88
2022-10-09T20:00:28.243Z,98988.69
2022-10-09T20:02:54.882Z,98962.44
2022-10-09T20:05:23.186Z,98984.28
2022-10-09T20:07:50.438Z,98959.09
2022-10-09T20:10:17.279Z,98970.00
2022-10-09T20:12:43.942Z,98995.00
2022-10-09T20:15:10.847Z,98978.00
2022-10-09T20:17:37.490Z,98975.91
2022-10-09T20:20:05.606Z,98980.91
2022-10-09T20:22:32.343Z,98995.81
2022-10-09T20:24:59.044Z,98988.06
2022-10-09T20:27:25.660Z,98988.50
2022-10-09T20:29:53.231Z,98950.47
2022-10-09T20:32:20.035Z,98993.94
2022-10-09T20:34:46.739Z,99002.34
2022-10-09T20:37:13.445Z,99002.13
2022-10-09T20:39:40.016Z,99005.69
2022-10-09T20:42:06.849Z,98998.34
2022-10-09T20:44:33.509Z,98977.38
2022-10-09T20:47:00.369Z,99008.66
2022-10-09T20:49:27.053Z,99003.81
2022-10-09T20:51:53.810Z,99001.91
2022-10-09T20:54:21.879Z,98994.31
2022-10-09T20:56:49.615Z,98993.91
2022-10-09T20:59:17.278Z,98971.66
2022-10-09T21:01:44.551Z,99003.81
2022-10-09T21:04:12.315Z,98978.81
2022-10-09T21:06:39.371Z,98998.53
2022-10-09T21:09:06.612Z,98998.50
2022-10-09T21:11:34.798Z,98993.47
2022-10-09T21:14:02.596Z,99021.38
2022-10-09T21:16:29.593Z,99003.13
2022-10-09T21:19:02.112Z,99019.94
2022-10-09T21:21:29.538Z,99013.19
2022-10-09T21:23:58.743Z,99012.56
2022-10-09T21:26:27.512Z,98974.78
2022-10-09T21:28:59.241Z,98995.97
2022-10-09T21:31:28.643Z,99014.25
2022-10-09T21:33:56.634Z,99015.50
2022-10-09T21:37:16.044Z,99014.03
2022-10-09T21:39:34.517Z,99012.34
2022-10-09T21:42:01.117Z,99016.31
2022-10-09T21:44:27.808Z,99017.38
2022-10-09T21:46:54.486Z,99019.47
2022-10-09T21:49:27.501Z,99012.94
2022-10-09T21:51:54.488Z,99004.53
2022-10-09T21:54:21.488Z,98996.13
2022-10-09T21:56:48.737Z,99020.69
2022-10-09T21:59:15.484Z,98965.28
2022-10-09T22:01:42.114Z,98991.72
2022-10-09T22:04:08.839Z,98992.78
2022-10-09T22:06:35.823Z,99003.09
2022-10-09T22:09:02.944Z,99008.53
2022-10-09T22:11:29.525Z,98993.03
2022-10-09T22:13:56.546Z,98996.19
2022-10-09T22:16:23.913Z,99013.38
2022-10-09T22:18:50.630Z,98992.38
2022-10-09T22:21:17.940Z,99016.09
2022-10-09T22:23:44.940Z,99010.44
2022-10-09T22:26:16.722Z,99020.50
2022-10-09T22:28:44.406Z,99019.06
2022-10-09T22:31:15.421Z,99020.09
2022-10-09T22:33:42.186Z,98989.88
2022-10-09T22:36:17.446Z,98998.47
2022-10-09T22:38:44.821Z,99025.75
2022-10-09T22:41:17.859Z,99027.03
2022-10-09T22:43:46.114Z,99000.16
2022-10-09T22:46:35.381Z,99031.66
2022-10-09T22:49:02.215Z,99028.31
2022-10-09T22:51:29.918Z,99000.16
2022-10-09T22:53:57.793Z,99001.00
2022-10-09T22:56:30.702Z,99041.28
2022-10-09T22:58:58.189Z,99042.78
2022-10-09T23:01:37.746Z,99035.81
2022-10-09T23:04:07.127Z,99030.38
2022-10-09T23:06:34.127Z,99047.34
2022-10-09T23:09:01.128Z,99038.75
2022-10-09T23:11:27.937Z,99045.88
2022-10-09T23:13:56.588Z,99056.59
2022-10-09T23:16:24.281Z,99052.56
2022-10-09T23:18:51.577Z,99066.63
2022-10-09T23:21:20.408Z,99041.19
2022-10-09T23:23:48.673Z,99058.00
2022-10-09T23:26:18.956Z,99074.59
2022-10-09T23:28:53.820Z,99056.69
2022-10-09T23:31:20.575Z,99080.84
2022-10-09T23:33:47.838Z,99068.84
2022-10-09T23:36:18.312Z,99069.69
2022-10-09T23:38:45.777Z,99070.03
2022-10-09T23:41:16.043Z,99073.13
2022-10-09T23:43:44.067Z,99083.66
2022-10-09T23:46:16.552Z,99074.38
2022-10-09T23:48:44.512Z,99072.69
2022-10-09T23:51:11.500Z,99087.31
2022-10-09T23:53:38.261Z,99077.19
2022-10-09T23:56:23.260Z,99081.47
2022-10-09T23:58:50.228Z,99082.31
